Cunha Pora, Brazil
Current Conditions -  °F | °C
As of 8:00 PM on Thursday 18 Dec 2014 (Local Time) from SBCH Reporting Station
Scattered Clouds Scattered Clouds  
Wind Chill: 79°   Ceiling: Unl
Heat Index: 81°   Visibility: 6mi
Dew Point: 66°   Wind: 5mph
Humidity: 65%   Direction: 230°SW
Pressure: 29.83"   Gusts: NA
Location:  26.89°S, 53.17°W
Report Text: SBCH 182200Z 23004KT 9999 FEW040TCU SCT080 26/19 Q1010
Loading
Personal Weather Stations






























Interactive Weather Map New forecast layout! Learn more

10-Day Weather Forecast

Advertisements
Track Severe Weather on mobile